sensor_id;sensor_type;location;lat;lon;timestamp;pressure;altitude;pressure_sealevel;temperature;humidity
21547;BME280;41275;51.912;4.388;2023-06-26T00:03:01;101238.00;;;29.70;37.66
21547;BME280;41275;51.912;4.388;2023-06-26T00:08:22;101257.59;;;29.48;37.81
21547;BME280;41275;51.912;4.388;2023-06-26T00:13:43;101252.03;;;29.20;38.36
21547;BME280;41275;51.912;4.388;2023-06-26T00:19:05;101255.34;;;28.89;38.93
21547;BME280;41275;51.912;4.388;2023-06-26T00:24:26;101273.38;;;28.81;39.85
21547;BME280;41275;51.912;4.388;2023-06-26T00:29:47;101264.50;;;28.59;40.35
21547;BME280;41275;51.912;4.388;2023-06-26T00:35:08;101260.59;;;28.48;40.61
21547;BME280;41275;51.912;4.388;2023-06-26T00:40:30;101262.22;;;28.49;41.18
21547;BME280;41275;51.912;4.388;2023-06-26T00:45:51;101265.06;;;28.32;41.76
21547;BME280;41275;51.912;4.388;2023-06-26T00:51:13;101267.53;;;28.25;42.20
21547;BME280;41275;51.912;4.388;2023-06-26T00:56:34;101280.22;;;28.21;42.09
21547;BME280;41275;51.912;4.388;2023-06-26T01:01:56;101271.44;;;28.03;42.66
21547;BME280;41275;51.912;4.388;2023-06-26T01:07:18;101277.06;;;27.98;42.77
21547;BME280;41275;51.912;4.388;2023-06-26T01:12:41;101287.78;;;28.03;42.75
21547;BME280;41275;51.912;4.388;2023-06-26T01:18:02;101282.50;;;27.98;42.81
21547;BME280;41275;51.912;4.388;2023-06-26T01:23:31;101272.91;;;28.00;43.55
21547;BME280;41275;51.912;4.388;2023-06-26T01:28:58;101269.88;;;27.81;43.55
21547;BME280;41275;51.912;4.388;2023-06-26T01:34:20;101264.16;;;27.74;43.62
21547;BME280;41275;51.912;4.388;2023-06-26T01:39:41;101277.19;;;27.59;43.96
21547;BME280;41275;51.912;4.388;2023-06-26T01:45:09;101302.31;;;27.56;44.38
21547;BME280;41275;51.912;4.388;2023-06-26T01:50:34;101281.94;;;27.62;44.13
21547;BME280;41275;51.912;4.388;2023-06-26T01:56:07;101282.88;;;27.46;44.31
21547;BME280;41275;51.912;4.388;2023-06-26T02:01:29;101276.00;;;27.48;44.85
21547;BME280;41275;51.912;4.388;2023-06-26T02:06:51;101280.34;;;27.40;44.65
21547;BME280;41275;51.912;4.388;2023-06-26T02:12:13;101272.91;;;27.29;44.84
21547;BME280;41275;51.912;4.388;2023-06-26T02:17:34;101296.81;;;27.44;44.57
21547;BME280;41275;51.912;4.388;2023-06-26T02:22:55;101286.94;;;27.39;44.65
21547;BME280;41275;51.912;4.388;2023-06-26T02:28:16;101307.91;;;27.30;43.99
21547;BME280;41275;51.912;4.388;2023-06-26T02:33:38;101311.50;;;27.05;44.52
21547;BME280;41275;51.912;4.388;2023-06-26T02:39:00;101313.94;;;26.98;44.69
21547;BME280;41275;51.912;4.388;2023-06-26T02:44:21;101317.66;;;26.84;44.87
21547;BME280;41275;51.912;4.388;2023-06-26T02:49:42;101317.69;;;26.67;45.26
21547;BME280;41275;51.912;4.388;2023-06-26T02:55:04;101320.59;;;26.62;45.32
21547;BME280;41275;51.912;4.388;2023-06-26T03:00:26;101334.34;;;26.48;45.42
21547;BME280;41275;51.912;4.388;2023-06-26T03:05:47;101334.00;;;26.32;45.80
21547;BME280;41275;51.912;4.388;2023-06-26T03:11:09;101353.34;;;26.22;45.85
21547;BME280;41275;51.912;4.388;2023-06-26T03:16:30;101342.78;;;26.12;46.09
21547;BME280;41275;51.912;4.388;2023-06-26T03:21:52;101349.00;;;26.04;46.06
21547;BME280;41275;51.912;4.388;2023-06-26T03:27:13;101355.69;;;25.98;46.30
21547;BME280;41275;51.912;4.388;2023-06-26T03:32:34;101355.84;;;25.92;46.34
21547;BME280;41275;51.912;4.388;2023-06-26T03:37:55;101360.63;;;25.87;46.55
21547;BME280;41275;51.912;4.388;2023-06-26T03:43:17;101365.56;;;25.85;46.72
21547;BME280;41275;51.912;4.388;2023-06-26T03:48:38;101364.72;;;25.76;46.71
21547;BME280;41275;51.912;4.388;2023-06-26T03:53:59;101368.75;;;25.78;46.51
21547;BME280;41275;51.912;4.388;2023-06-26T03:59:20;101377.25;;;26.03;46.34
21547;BME280;41275;51.912;4.388;2023-06-26T04:04:42;101378.03;;;25.94;46.24
21547;BME280;41275;51.912;4.388;2023-06-26T04:10:03;101398.94;;;25.94;46.32
21547;BME280;41275;51.912;4.388;2023-06-26T04:15:24;101417.31;;;26.06;46.01
21547;BME280;41275;51.912;4.388;2023-06-26T04:21:05;101429.13;;;26.10;45.54
21547;BME280;41275;51.912;4.388;2023-06-26T04:26:29;101426.53;;;26.05;45.37
21547;BME280;41275;51.912;4.388;2023-06-26T04:31:51;101431.22;;;26.22;44.88
21547;BME280;41275;51.912;4.388;2023-06-26T04:37:13;101437.28;;;26.36;44.46
21547;BME280;41275;51.912;4.388;2023-06-26T04:42:37;101439.03;;;26.32;44.59
21547;BME280;41275;51.912;4.388;2023-06-26T04:47:58;101449.09;;;26.31;44.65
21547;BME280;41275;51.912;4.388;2023-06-26T04:53:22;101456.91;;;26.33;45.07
21547;BME280;41275;51.912;4.388;2023-06-26T04:58:43;101461.88;;;26.48;45.01
21547;BME280;41275;51.912;4.388;2023-06-26T05:04:05;101462.88;;;26.61;44.92
21547;BME280;41275;51.912;4.388;2023-06-26T05:09:27;101472.59;;;26.62;44.90
21547;BME280;41275;51.912;4.388;2023-06-26T05:14:48;101485.06;;;26.46;43.64
21547;BME280;41275;51.912;4.388;2023-06-26T05:20:09;101504.53;;;26.48;42.18
21547;BME280;41275;51.912;4.388;2023-06-26T05:25:31;101515.44;;;26.25;41.60
21547;BME280;41275;51.912;4.388;2023-06-26T05:30:54;101517.97;;;26.13;41.70
21547;BME280;41275;51.912;4.388;2023-06-26T05:36:16;101521.16;;;26.06;41.66
21547;BME280;41275;51.912;4.388;2023-06-26T05:41:38;101517.66;;;26.06;41.25
21547;BME280;41275;51.912;4.388;2023-06-26T05:46:59;101547.03;;;25.81;41.18
21547;BME280;41275;51.912;4.388;2023-06-26T05:52:20;101539.13;;;25.62;41.20
21547;BME280;41275;51.912;4.388;2023-06-26T05:57:42;101532.13;;;25.70;41.10
21547;BME280;41275;51.912;4.388;2023-06-26T06:03:04;101531.22;;;26.06;40.59
21547;BME280;41275;51.912;4.388;2023-06-26T06:08:25;101556.31;;;26.29;39.91
21547;BME280;41275;51.912;4.388;2023-06-26T06:13:46;101554.81;;;26.05;39.71
21547;BME280;41275;51.912;4.388;2023-06-26T06:19:07;101575.28;;;25.80;40.15
21547;BME280;41275;51.912;4.388;2023-06-26T06:24:31;101585.91;;;25.77;40.42
21547;BME280;41275;51.912;4.388;2023-06-26T06:29:53;101592.97;;;25.78;40.47
21547;BME280;41275;51.912;4.388;2023-06-26T06:35:14;101604.22;;;25.71;39.79
21547;BME280;41275;51.912;4.388;2023-06-26T06:40:35;101616.44;;;25.82;38.89
21547;BME280;41275;51.912;4.388;2023-06-26T06:45:56;101609.41;;;25.81;39.30
21547;BME280;41275;51.912;4.388;2023-06-26T06:51:18;101626.72;;;25.94;38.97
21547;BME280;41275;51.912;4.388;2023-06-26T06:56:39;101629.88;;;25.87;39.28
21547;BME280;41275;51.912;4.388;2023-06-26T07:02:00;101628.31;;;25.95;39.50
21547;BME280;41275;51.912;4.388;2023-06-26T07:07:21;101630.16;;;26.17;39.52
21547;BME280;41275;51.912;4.388;2023-06-26T07:12:42;101642.81;;;26.22;39.88
21547;BME280;41275;51.912;4.388;2023-06-26T07:18:05;101643.03;;;26.03;39.68
21547;BME280;41275;51.912;4.388;2023-06-26T07:23:26;101655.31;;;26.00;39.93
21547;BME280;41275;51.912;4.388;2023-06-26T07:28:48;101672.25;;;26.06;39.48
21547;BME280;41275;51.912;4.388;2023-06-26T07:34:10;101669.59;;;26.14;39.45
21547;BME280;41275;51.912;4.388;2023-06-26T07:39:31;101681.47;;;26.27;39.66
21547;BME280;41275;51.912;4.388;2023-06-26T07:44:52;101671.63;;;26.40;39.46
21547;BME280;41275;51.912;4.388;2023-06-26T07:50:14;101679.81;;;26.49;39.80
21547;BME280;41275;51.912;4.388;2023-06-26T07:55:40;101688.56;;;26.77;38.91
21547;BME280;41275;51.912;4.388;2023-06-26T08:01:01;101709.44;;;26.67;38.85
21547;BME280;41275;51.912;4.388;2023-06-26T08:06:22;101700.78;;;26.57;39.19
21547;BME280;41275;51.912;4.388;2023-06-26T08:11:45;101710.50;;;26.98;38.43
21547;BME280;41275;51.912;4.388;2023-06-26T08:17:07;101707.78;;;26.98;37.44
21547;BME280;41275;51.912;4.388;2023-06-26T08:22:28;101719.13;;;27.00;37.01
21547;BME280;41275;51.912;4.388;2023-06-26T08:27:49;101714.34;;;27.05;37.43
21547;BME280;41275;51.912;4.388;2023-06-26T08:33:13;101716.19;;;27.36;36.69
21547;BME280;41275;51.912;4.388;2023-06-26T08:38:34;101725.28;;;27.23;36.37
21547;BME280;41275;51.912;4.388;2023-06-26T08:43:56;101737.59;;;27.37;36.45
21547;BME280;41275;51.912;4.388;2023-06-26T08:49:21;101733.13;;;27.24;37.17
21547;BME280;41275;51.912;4.388;2023-06-26T08:54:50;101739.38;;;27.42;37.02
21547;BME280;41275;51.912;4.388;2023-06-26T09:00:13;101736.00;;;27.36;36.10
21547;BME280;41275;51.912;4.388;2023-06-26T09:05:36;101747.16;;;27.17;36.85
21547;BME280;41275;51.912;4.388;2023-06-26T09:10:57;101753.91;;;27.46;36.89
21547;BME280;41275;51.912;4.388;2023-06-26T09:16:24;101766.75;;;27.72;37.13
21547;BME280;41275;51.912;4.388;2023-06-26T09:21:49;101783.88;;;27.81;36.57
21547;BME280;41275;51.912;4.388;2023-06-26T09:27:11;101788.34;;;28.11;36.36
21547;BME280;41275;51.912;4.388;2023-06-26T09:32:36;101791.47;;;28.66;35.08
21547;BME280;41275;51.912;4.388;2023-06-26T09:37:57;101790.03;;;28.59;34.94
21547;BME280;41275;51.912;4.388;2023-06-26T09:43:19;101808.84;;;28.09;35.73
21547;BME280;41275;51.912;4.388;2023-06-26T09:48:40;101803.75;;;27.99;35.90
21547;BME280;41275;51.912;4.388;2023-06-26T09:54:02;101810.41;;;28.36;35.37
21547;BME280;41275;51.912;4.388;2023-06-26T09:59:23;101823.38;;;28.48;34.95
21547;BME280;41275;51.912;4.388;2023-06-26T10:04:45;101814.47;;;27.86;35.75
21547;BME280;41275;51.912;4.388;2023-06-26T10:10:07;101819.34;;;27.50;36.09
21547;BME280;41275;51.912;4.388;2023-06-26T10:15:30;101835.97;;;27.39;35.88
21547;BME280;41275;51.912;4.388;2023-06-26T10:20:55;101834.69;;;27.54;35.72
21547;BME280;41275;51.912;4.388;2023-06-26T10:26:21;101844.38;;;27.86;34.42
21547;BME280;41275;51.912;4.388;2023-06-26T10:31:44;101853.50;;;27.99;32.86
21547;BME280;41275;51.912;4.388;2023-06-26T10:37:07;101860.38;;;27.97;32.26
21547;BME280;41275;51.912;4.388;2023-06-26T10:42:36;101852.25;;;27.39;33.18
21547;BME280;41275;51.912;4.388;2023-06-26T10:47:57;101854.44;;;27.77;32.76
21547;BME280;41275;51.912;4.388;2023-06-26T10:58:42;101885.94;;;27.78;32.74
21547;BME280;41275;51.912;4.388;2023-06-26T11:04:05;101892.06;;;28.36;32.12
21547;BME280;41275;51.912;4.388;2023-06-26T11:09:27;101884.09;;;28.22;31.72
21547;BME280;41275;51.912;4.388;2023-06-26T11:14:48;101886.19;;;28.43;31.67
21547;BME280;41275;51.912;4.388;2023-06-26T11:20:11;101916.78;;;28.40;31.32
21547;BME280;41275;51.912;4.388;2023-06-26T11:25:36;101902.47;;;28.25;31.41
21547;BME280;41275;51.912;4.388;2023-06-26T11:30:58;101898.66;;;28.35;31.15
21547;BME280;41275;51.912;4.388;2023-06-26T11:36:19;101930.88;;;28.42;31.41
21547;BME280;41275;51.912;4.388;2023-06-26T11:41:40;101914.34;;;28.12;31.35
21547;BME280;41275;51.912;4.388;2023-06-26T11:47:02;101933.38;;;28.21;31.91
21547;BME280;41275;51.912;4.388;2023-06-26T11:52:23;101930.22;;;28.53;31.61
21547;BME280;41275;51.912;4.388;2023-06-26T11:57:49;101945.91;;;28.74;31.14
21547;BME280;41275;51.912;4.388;2023-06-26T12:03:12;101932.94;;;29.35;31.11
21547;BME280;41275;51.912;4.388;2023-06-26T12:08:33;101951.94;;;29.14;31.38
21547;BME280;41275;51.912;4.388;2023-06-26T12:13:54;101961.66;;;29.32;31.40
21547;BME280;41275;51.912;4.388;2023-06-26T12:19:15;101961.13;;;29.48;30.82
21547;BME280;41275;51.912;4.388;2023-06-26T12:24:38;101959.88;;;29.37;30.76
21547;BME280;41275;51.912;4.388;2023-06-26T12:30:03;101970.88;;;28.93;31.52
21547;BME280;41275;51.912;4.388;2023-06-26T12:35:25;101963.53;;;28.50;32.30
21547;BME280;41275;51.912;4.388;2023-06-26T12:40:46;101984.47;;;29.66;30.50
21547;BME280;41275;51.912;4.388;2023-06-26T12:46:08;101967.03;;;29.58;31.18
21547;BME280;41275;51.912;4.388;2023-06-26T12:51:29;101986.00;;;29.84;30.43
21547;BME280;41275;51.912;4.388;2023-06-26T12:56:51;101982.22;;;30.27;30.11
21547;BME280;41275;51.912;4.388;2023-06-26T13:02:12;101985.16;;;29.93;30.41
21547;BME280;41275;51.912;4.388;2023-06-26T13:07:34;101993.59;;;30.29;30.38
21547;BME280;41275;51.912;4.388;2023-06-26T13:12:55;101979.63;;;30.31;29.71
21547;BME280;41275;51.912;4.388;2023-06-26T13:18:16;101967.19;;;30.42;30.13
21547;BME280;41275;51.912;4.388;2023-06-26T13:23:37;101979.34;;;30.24;29.53
21547;BME280;41275;51.912;4.388;2023-06-26T13:28:59;101966.91;;;30.05;29.69
21547;BME280;41275;51.912;4.388;2023-06-26T13:34:24;101972.03;;;29.48;30.73
21547;BME280;41275;51.912;4.388;2023-06-26T13:39:48;101985.38;;;29.41;30.33
21547;BME280;41275;51.912;4.388;2023-06-26T13:45:11;101998.47;;;29.56;30.31
21547;BME280;41275;51.912;4.388;2023-06-26T13:50:32;101996.50;;;29.18;30.80
21547;BME280;41275;51.912;4.388;2023-06-26T13:55:54;101988.28;;;29.27;31.10
21547;BME280;41275;51.912;4.388;2023-06-26T14:01:15;101999.53;;;29.25;30.75
21547;BME280;41275;51.912;4.388;2023-06-26T14:06:36;101998.19;;;30.38;29.25
21547;BME280;41275;51.912;4.388;2023-06-26T14:11:57;102000.63;;;30.39;27.78
21547;BME280;41275;51.912;4.388;2023-06-26T14:17:19;102006.28;;;31.67;26.40
21547;BME280;41275;51.912;4.388;2023-06-26T14:22:40;102000.13;;;32.59;25.54
21547;BME280;41275;51.912;4.388;2023-06-26T14:28:01;101998.69;;;32.37;25.62
21547;BME280;41275;51.912;4.388;2023-06-26T14:33:22;101984.81;;;32.86;24.50
21547;BME280;41275;51.912;4.388;2023-06-26T14:38:44;101995.94;;;31.85;25.48
21547;BME280;41275;51.912;4.388;2023-06-26T14:44:05;101991.28;;;32.25;25.41
21547;BME280;41275;51.912;4.388;2023-06-26T14:49:29;101990.94;;;34.06;24.58
21547;BME280;41275;51.912;4.388;2023-06-26T14:54:50;101979.50;;;33.21;24.73
21547;BME280;41275;51.912;4.388;2023-06-26T15:00:12;101994.44;;;35.69;22.43
21547;BME280;41275;51.912;4.388;2023-06-26T15:05:33;101985.91;;;36.38;22.41
21547;BME280;41275;51.912;4.388;2023-06-26T15:10:54;101983.22;;;36.75;22.39
21547;BME280;41275;51.912;4.388;2023-06-26T15:16:15;101979.81;;;35.65;22.61
21547;BME280;41275;51.912;4.388;2023-06-26T15:21:36;101980.22;;;34.75;23.69
21547;BME280;41275;51.912;4.388;2023-06-26T15:26:58;101988.72;;;36.11;22.52
21547;BME280;41275;51.912;4.388;2023-06-26T15:32:19;101989.34;;;35.25;22.34
21547;BME280;41275;51.912;4.388;2023-06-26T15:37:40;101990.22;;;32.83;25.38
21547;BME280;41275;51.912;4.388;2023-06-26T15:43:02;101977.81;;;33.33;24.94
21547;BME280;41275;51.912;4.388;2023-06-26T15:48:24;101977.06;;;35.65;23.11
21547;BME280;41275;51.912;4.388;2023-06-26T15:53:46;101973.03;;;36.16;22.29
21547;BME280;41275;51.912;4.388;2023-06-26T15:59:08;102003.19;;;36.35;21.56
21547;BME280;41275;51.912;4.388;2023-06-26T16:04:29;101971.66;;;37.00;21.11
21547;BME280;41275;51.912;4.388;2023-06-26T16:09:52;101989.94;;;37.19;20.47
21547;BME280;41275;51.912;4.388;2023-06-26T16:15:14;101980.38;;;35.78;21.76
21547;BME280;41275;51.912;4.388;2023-06-26T16:20:35;101978.53;;;36.12;21.21
21547;BME280;41275;51.912;4.388;2023-06-26T16:25:56;101981.38;;;36.23;21.16
21547;BME280;41275;51.912;4.388;2023-06-26T16:31:17;101980.00;;;35.79;21.00
21547;BME280;41275;51.912;4.388;2023-06-26T16:36:38;101993.78;;;35.30;21.52
21547;BME280;41275;51.912;4.388;2023-06-26T16:42:00;101974.34;;;36.25;20.57
21547;BME280;41275;51.912;4.388;2023-06-26T16:47:21;101983.31;;;35.39;21.31
21547;BME280;41275;51.912;4.388;2023-06-26T16:52:42;101963.81;;;35.74;21.38
21547;BME280;41275;51.912;4.388;2023-06-26T16:58:04;101981.72;;;35.15;21.62
21547;BME280;41275;51.912;4.388;2023-06-26T17:03:25;101974.88;;;35.05;21.74
21547;BME280;41275;51.912;4.388;2023-06-26T17:08:47;101983.28;;;34.93;22.07
21547;BME280;41275;51.912;4.388;2023-06-26T17:14:08;101978.00;;;34.84;22.09
21547;BME280;41275;51.912;4.388;2023-06-26T17:19:29;101971.22;;;33.85;23.02
21547;BME280;41275;51.912;4.388;2023-06-26T17:24:52;101979.69;;;32.16;24.39
21547;BME280;41275;51.912;4.388;2023-06-26T17:30:19;101970.56;;;32.53;24.91
21547;BME280;41275;51.912;4.388;2023-06-26T17:35:40;101970.22;;;34.09;23.46
21547;BME280;41275;51.912;4.388;2023-06-26T17:41:01;101976.28;;;35.19;21.86
21547;BME280;41275;51.912;4.388;2023-06-26T17:46:22;101980.63;;;34.77;22.82
21547;BME280;41275;51.912;4.388;2023-06-26T17:51:44;101985.78;;;34.79;22.26
21547;BME280;41275;51.912;4.388;2023-06-26T17:57:05;102002.31;;;35.02;22.09
21547;BME280;41275;51.912;4.388;2023-06-26T18:02:26;101994.16;;;34.28;22.43
21547;BME280;41275;51.912;4.388;2023-06-26T18:07:48;101993.53;;;34.54;22.30
21547;BME280;41275;51.912;4.388;2023-06-26T18:13:09;101998.59;;;34.52;22.24
21547;BME280;41275;51.912;4.388;2023-06-26T18:18:30;101996.00;;;34.59;22.17
21547;BME280;41275;51.912;4.388;2023-06-26T18:23:51;101998.50;;;34.29;22.81
21547;BME280;41275;51.912;4.388;2023-06-26T18:29:13;102004.22;;;33.53;23.22
21547;BME280;41275;51.912;4.388;2023-06-26T18:34:34;101997.09;;;33.20;24.18
21547;BME280;41275;51.912;4.388;2023-06-26T18:39:55;101997.88;;;32.49;24.21
21547;BME280;41275;51.912;4.388;2023-06-26T18:45:17;102003.28;;;32.21;25.31
21547;BME280;41275;51.912;4.388;2023-06-26T18:50:38;101989.47;;;30.44;27.24
21547;BME280;41275;51.912;4.388;2023-06-26T18:55:59;101990.38;;;29.30;28.57
21547;BME280;41275;51.912;4.388;2023-06-26T19:01:20;102001.03;;;28.53;29.63
21547;BME280;41275;51.912;4.388;2023-06-26T19:06:42;101992.38;;;27.94;30.70
21547;BME280;41275;51.912;4.388;2023-06-26T19:12:04;102003.84;;;27.42;31.40
21547;BME280;41275;51.912;4.388;2023-06-26T19:17:25;102014.81;;;27.29;31.91
21547;BME280;41275;51.912;4.388;2023-06-26T19:22:46;102015.25;;;27.22;32.08
21547;BME280;41275;51.912;4.388;2023-06-26T19:28:09;102024.34;;;27.04;32.99
21547;BME280;41275;51.912;4.388;2023-06-26T19:33:32;102025.09;;;26.73;33.63
21547;BME280;41275;51.912;4.388;2023-06-26T19:38:53;102027.63;;;26.56;33.63
21547;BME280;41275;51.912;4.388;2023-06-26T19:44:15;102020.53;;;26.46;33.77
21547;BME280;41275;51.912;4.388;2023-06-26T19:49:36;102014.00;;;26.47;33.67
21547;BME280;41275;51.912;4.388;2023-06-26T19:54:57;102022.44;;;26.46;33.67
21547;BME280;41275;51.912;4.388;2023-06-26T20:00:19;102014.16;;;26.37;33.40
21547;BME280;41275;51.912;4.388;2023-06-26T20:05:40;102018.91;;;26.31;33.28
21547;BME280;41275;51.912;4.388;2023-06-26T20:11:01;102025.66;;;26.34;33.52
21547;BME280;41275;51.912;4.388;2023-06-26T20:16:22;102032.41;;;26.23;33.61
21547;BME280;41275;51.912;4.388;2023-06-26T20:21:44;102033.13;;;26.14;33.85
21547;BME280;41275;51.912;4.388;2023-06-26T20:27:06;102035.03;;;26.14;34.06
21547;BME280;41275;51.912;4.388;2023-06-26T20:32:27;102039.53;;;26.18;34.51
21547;BME280;41275;51.912;4.388;2023-06-26T20:37:48;102030.78;;;26.35;34.20
21547;BME280;41275;51.912;4.388;2023-06-26T20:43:10;102034.78;;;26.38;33.76
21547;BME280;41275;51.912;4.388;2023-06-26T20:48:31;102029.88;;;26.26;34.25
21547;BME280;41275;51.912;4.388;2023-06-26T20:53:53;102032.69;;;26.35;34.25
21547;BME280;41275;51.912;4.388;2023-06-26T20:59:15;102031.06;;;26.48;34.34
21547;BME280;41275;51.912;4.388;2023-06-26T21:04:36;102028.06;;;26.49;34.63
21547;BME280;41275;51.912;4.388;2023-06-26T21:09:58;102021.50;;;26.36;35.52
21547;BME280;41275;51.912;4.388;2023-06-26T21:15:20;102031.69;;;26.17;36.49
21547;BME280;41275;51.912;4.388;2023-06-26T21:20:41;102022.84;;;25.98;37.23
21547;BME280;41275;51.912;4.388;2023-06-26T21:26:03;102028.16;;;25.89;38.37
21547;BME280;41275;51.912;4.388;2023-06-26T21:31:24;102024.78;;;25.83;38.98
21547;BME280;41275;51.912;4.388;2023-06-26T21:36:47;102026.53;;;25.74;39.37
21547;BME280;41275;51.912;4.388;2023-06-26T21:42:08;102019.00;;;25.71;39.83
21547;BME280;41275;51.912;4.388;2023-06-26T21:47:29;102019.97;;;25.61;40.34
21547;BME280;41275;51.912;4.388;2023-06-26T21:52:50;102023.28;;;25.58;40.65
21547;BME280;41275;51.912;4.388;2023-06-26T21:58:12;102013.16;;;25.64;40.93
21547;BME280;41275;51.912;4.388;2023-06-26T22:03:33;102025.19;;;25.58;41.38
21547;BME280;41275;51.912;4.388;2023-06-26T22:08:54;102005.63;;;25.47;41.79
21547;BME280;41275;51.912;4.388;2023-06-26T22:14:15;102012.97;;;25.60;41.79
21547;BME280;41275;51.912;4.388;2023-06-26T22:19:37;102007.97;;;25.67;41.89
21547;BME280;41275;51.912;4.388;2023-06-26T22:24:58;102003.81;;;25.70;42.26
21547;BME280;41275;51.912;4.388;2023-06-26T22:30:21;101997.81;;;25.59;42.37
21547;BME280;41275;51.912;4.388;2023-06-26T22:35:43;101998.00;;;25.63;42.41
21547;BME280;41275;51.912;4.388;2023-06-26T22:41:04;101997.00;;;25.59;42.64
21547;BME280;41275;51.912;4.388;2023-06-26T22:46:25;101985.16;;;25.68;42.50
21547;BME280;41275;51.912;4.388;2023-06-26T22:51:46;101993.38;;;25.77;42.30
21547;BME280;41275;51.912;4.388;2023-06-26T22:57:08;101982.06;;;25.75;42.61
21547;BME280;41275;51.912;4.388;2023-06-26T23:02:29;101994.41;;;25.67;42.73
21547;BME280;41275;51.912;4.388;2023-06-26T23:07:50;101989.25;;;25.66;42.42
21547;BME280;41275;51.912;4.388;2023-06-26T23:13:11;102000.41;;;25.64;42.12
21547;BME280;41275;51.912;4.388;2023-06-26T23:18:33;101990.97;;;25.62;41.80
21547;BME280;41275;51.912;4.388;2023-06-26T23:23:54;101995.16;;;25.54;41.89
21547;BME280;41275;51.912;4.388;2023-06-26T23:29:17;101992.34;;;25.45;41.99
21547;BME280;41275;51.912;4.388;2023-06-26T23:34:39;101986.63;;;25.33;42.23
21547;BME280;41275;51.912;4.388;2023-06-26T23:40:00;101994.75;;;25.33;42.27
21547;BME280;41275;51.912;4.388;2023-06-26T23:45:21;101984.00;;;25.42;41.74
21547;BME280;41275;51.912;4.388;2023-06-26T23:50:43;101998.47;;;25.37;42.17
21547;BME280;41275;51.912;4.388;2023-06-26T23:56:04;102003.97;;;25.32;42.23
